createdAt,value
2022-10-14T00:01:09.696Z,98566.09
2022-10-14T00:03:40.004Z,98565.44
2022-10-14T00:06:09.243Z,98557.88
2022-10-14T00:08:38.106Z,98577.88
2022-10-14T00:11:08.021Z,98555.50
2022-10-14T00:13:36.902Z,98554.66
2022-10-14T00:16:05.990Z,98554.66
2022-10-14T00:18:34.773Z,98552.81
2022-10-14T00:21:04.958Z,98555.69
2022-10-14T00:23:33.512Z,98549.28
2022-10-14T00:26:01.986Z,98548.47
2022-10-14T00:28:30.518Z,98551.97
2022-10-14T00:31:00.753Z,98552.81
2022-10-14T00:33:29.436Z,98552.81
2022-10-14T00:36:00.138Z,98555.50
2022-10-14T00:38:30.076Z,98551.97
2022-10-14T00:40:58.770Z,98549.28
2022-10-14T00:43:27.763Z,98550.13
2022-10-14T00:45:56.615Z,98552.81
2022-10-14T00:48:26.529Z,98543.91
2022-10-14T00:50:56.151Z,98546.44
2022-10-14T00:53:24.720Z,98543.91
2022-10-14T00:55:54.634Z,98541.22
2022-10-14T00:58:23.420Z,98534.84
2022-10-14T01:00:52.024Z,98536.69
2022-10-14T01:03:22.969Z,98528.59
2022-10-14T01:05:54.934Z,98531.28
2022-10-14T01:08:27.592Z,98525.91
2022-10-14T01:11:03.489Z,98527.78
2022-10-14T01:13:34.540Z,98529.63
2022-10-14T01:16:12.182Z,98534.00
2022-10-14T01:18:53.198Z,98535.00
2022-10-14T01:21:26.461Z,98533.16
2022-10-14T01:24:26.138Z,98523.22
2022-10-14T01:27:18.424Z,98529.63
2022-10-14T01:30:10.663Z,98524.25
2022-10-14T01:32:52.383Z,98530.47
2022-10-14T01:35:38.395Z,98527.78
2022-10-14T01:38:12.396Z,98518.88
2022-10-14T01:40:44.994Z,98524.25
2022-10-14T01:43:14.370Z,98515.34
2022-10-14T01:45:45.243Z,98521.56
2022-10-14T01:48:14.694Z,98518.03
2022-10-14T01:50:43.226Z,98519.91
2022-10-14T01:53:14.991Z,98516.19
2022-10-14T01:55:45.936Z,98510.81
2022-10-14T01:58:15.563Z,98506.44
2022-10-14T02:00:47.879Z,98510.97
2022-10-14T02:03:17.926Z,98510.13
2022-10-14T02:05:49.922Z,98509.13
2022-10-14T02:08:25.688Z,98504.75
2022-10-14T02:11:07.928Z,98493.00
2022-10-14T02:13:51.071Z,98486.75
2022-10-14T02:16:29.254Z,98497.50
2022-10-14T02:19:02.092Z,98488.44
2022-10-14T02:21:34.871Z,98483.25
2022-10-14T02:24:06.861Z,98485.94
2022-10-14T02:26:35.697Z,98486.75
2022-10-14T02:29:05.079Z,98480.56
2022-10-14T02:31:35.817Z,98492.13
2022-10-14T02:34:07.368Z,98477.84
2022-10-14T02:36:37.063Z,98475.16
2022-10-14T02:39:05.886Z,98474.34
2022-10-14T02:41:36.503Z,98475.16
2022-10-14T02:44:06.574Z,98474.19
2022-10-14T02:46:36.976Z,98480.56
2022-10-14T02:49:05.554Z,98477.84
2022-10-14T02:51:34.358Z,98472.47
2022-10-14T02:54:02.982Z,98475.16
2022-10-14T02:56:31.578Z,98472.47
2022-10-14T02:59:00.092Z,98475.16
2022-10-14T03:01:29.987Z,98471.66
2022-10-14T03:04:01.460Z,98465.44
2022-10-14T03:06:30.037Z,98473.31
2022-10-14T03:08:58.593Z,98469.78
2022-10-14T03:11:27.204Z,98468.97
2022-10-14T03:13:55.767Z,98470.81
2022-10-14T03:16:24.364Z,98469.78
2022-10-14T03:18:52.870Z,98468.97
2022-10-14T03:21:23.023Z,98468.97
2022-10-14T03:23:52.798Z,98468.97
2022-10-14T03:26:21.488Z,98462.75
2022-10-14T03:28:50.148Z,98469.16
2022-10-14T03:31:18.790Z,98460.88
2022-10-14T03:33:47.864Z,98467.28
2022-10-14T03:36:16.585Z,98472.69
2022-10-14T03:38:46.496Z,98468.13
2022-10-14T03:41:15.034Z,98468.13
2022-10-14T03:43:43.787Z,98468.13
2022-10-14T03:46:12.306Z,98467.28
2022-10-14T03:48:41.133Z,98460.06
2022-10-14T03:51:09.980Z,98461.91
2022-10-14T03:53:38.731Z,98463.78
2022-10-14T03:56:09.335Z,98461.09
2022-10-14T03:58:38.188Z,98458.41
2022-10-14T04:01:06.830Z,98458.19
2022-10-14T04:03:35.469Z,98453.03
2022-10-14T04:06:04.101Z,98449.47
2022-10-14T04:08:32.742Z,98455.72
2022-10-14T04:11:01.441Z,98462.75
2022-10-14T04:13:33.060Z,98457.38
2022-10-14T04:16:05.136Z,98462.75
2022-10-14T04:18:34.893Z,98454.84
2022-10-14T04:21:07.406Z,98458.41
2022-10-14T04:23:36.261Z,98450.31
2022-10-14T04:26:05.742Z,98455.72
2022-10-14T04:28:35.918Z,98455.72
2022-10-14T04:31:04.852Z,98450.31
2022-10-14T04:33:35.135Z,98453.03
2022-10-14T04:36:07.712Z,98453.03
2022-10-14T04:38:36.580Z,98453.84
2022-10-14T04:41:05.592Z,98449.47
2022-10-14T04:43:36.014Z,98445.78
2022-10-14T04:46:04.530Z,98444.94
2022-10-14T04:48:33.225Z,98449.31
2022-10-14T04:51:01.883Z,98445.78
2022-10-14T04:53:30.500Z,98445.78
2022-10-14T04:55:59.046Z,98442.25
2022-10-14T04:58:29.417Z,98439.56
2022-10-14T05:00:59.290Z,98437.72
2022-10-14T05:03:28.394Z,98440.41
2022-10-14T05:05:57.053Z,98436.03
2022-10-14T05:08:25.692Z,98439.56
2022-10-14T05:10:54.279Z,98439.56
2022-10-14T05:13:22.826Z,98427.94
2022-10-14T05:15:51.409Z,98438.53
2022-10-14T05:18:21.394Z,98437.50
2022-10-14T05:20:50.006Z,98432.13
2022-10-14T05:23:18.568Z,98429.44
2022-10-14T05:25:47.074Z,98437.50
2022-10-14T05:28:15.765Z,98439.22
2022-10-14T05:30:44.319Z,98442.25
2022-10-14T05:33:12.985Z,98435.84
2022-10-14T05:35:58.248Z,98432.13
2022-10-14T05:38:29.824Z,98442.06
2022-10-14T05:40:58.968Z,98429.44
2022-10-14T05:43:32.014Z,98432.97
2022-10-14T05:46:01.574Z,98440.03
2022-10-14T05:48:30.613Z,98430.78
2022-10-14T05:51:02.706Z,98423.72
2022-10-14T05:53:32.705Z,98433.47
2022-10-14T05:56:05.696Z,98428.94
2022-10-14T05:58:34.239Z,98427.25
2022-10-14T06:01:02.950Z,98429.09
2022-10-14T06:03:31.746Z,98432.63
2022-10-14T06:06:01.747Z,98436.16
2022-10-14T06:08:30.669Z,98437.00
2022-10-14T06:10:59.235Z,98438.84
2022-10-14T06:13:28.291Z,98437.16
2022-10-14T06:15:56.785Z,98438.84
2022-10-14T06:18:25.509Z,98444.22
2022-10-14T06:20:54.595Z,98439.84
2022-10-14T06:23:24.729Z,98440.88
2022-10-14T06:25:53.241Z,98433.84
2022-10-14T06:28:21.882Z,98439.22
2022-10-14T06:30:53.772Z,98439.22
2022-10-14T06:33:22.862Z,98442.06
2022-10-14T06:35:51.503Z,98442.06
2022-10-14T06:38:20.142Z,98438.53
2022-10-14T06:40:51.709Z,98441.22
2022-10-14T06:43:20.530Z,98442.91
2022-10-14T06:45:49.221Z,98450.81
2022-10-14T06:48:17.974Z,98451.47
2022-10-14T06:50:46.421Z,98457.84
2022-10-14T06:53:14.990Z,98452.47
2022-10-14T06:55:43.782Z,98456.19
2022-10-14T06:58:15.064Z,98450.81
2022-10-14T07:00:47.972Z,98450.81
2022-10-14T07:03:17.368Z,98458.03
2022-10-14T07:05:45.966Z,98457.00
2022-10-14T07:08:15.842Z,98459.69
2022-10-14T07:10:44.669Z,98452.47
2022-10-14T07:13:14.898Z,98452.31
2022-10-14T07:15:43.604Z,98452.66
2022-10-14T07:18:12.221Z,98453.28
2022-10-14T07:20:40.977Z,98453.28
2022-10-14T07:23:09.552Z,98458.69
2022-10-14T07:25:38.194Z,98458.03
2022-10-14T07:28:06.995Z,98462.75
2022-10-14T07:30:38.446Z,98453.50
2022-10-14T07:33:07.099Z,98461.38
2022-10-14T07:35:36.325Z,98452.97
2022-10-14T07:38:04.929Z,98458.81
2022-10-14T07:40:33.696Z,98454.78
2022-10-14T07:43:02.260Z,98456.66
2022-10-14T07:45:35.447Z,98454.63
2022-10-14T07:48:05.603Z,98463.72
2022-10-14T07:50:34.321Z,98466.16
2022-10-14T07:53:02.873Z,98461.38
2022-10-14T07:55:32.020Z,98457.84
2022-10-14T07:58:00.741Z,98469.59
2022-10-14T08:00:29.559Z,98467.34
2022-10-14T08:02:58.133Z,98458.63
2022-10-14T08:05:43.572Z,98453.25
2022-10-14T08:08:12.298Z,98463.00
2022-10-14T08:10:41.379Z,98457.25
2022-10-14T08:13:09.905Z,98456.44
2022-10-14T08:15:40.946Z,98454.41
2022-10-14T08:18:09.753Z,98457.25
2022-10-14T08:20:39.952Z,98458.28
2022-10-14T08:23:09.665Z,98455.41
2022-10-14T08:25:38.221Z,98462.66
2022-10-14T08:28:06.812Z,98456.59
2022-10-14T08:30:35.376Z,98459.13
2022-10-14T08:33:04.090Z,98455.41
2022-10-14T08:35:32.803Z,98455.41
2022-10-14T08:38:03.289Z,98462.66
2022-10-14T08:40:35.109Z,98456.25
2022-10-14T08:43:05.673Z,98462.66
2022-10-14T08:45:36.164Z,98460.63
2022-10-14T08:48:09.719Z,98454.41
2022-10-14T08:50:40.698Z,98454.25
2022-10-14T08:53:13.832Z,98463.47
2022-10-14T08:55:45.011Z,98460.97
2022-10-14T08:58:16.247Z,98461.31
2022-10-14T09:00:45.204Z,98454.63
2022-10-14T09:03:18.092Z,98448.41
2022-10-14T09:05:57.067Z,98446.56
2022-10-14T09:08:34.147Z,98452.41
2022-10-14T09:11:02.735Z,98442.16
2022-10-14T09:13:35.702Z,98448.38
2022-10-14T09:16:07.371Z,98451.88
2022-10-14T09:18:39.439Z,98452.38
2022-10-14T09:21:51.733Z,98453.75
2022-10-14T09:24:23.032Z,98461.47
2022-10-14T09:29:29.343Z,98455.09
2022-10-14T09:32:00.495Z,98458.63
2022-10-14T09:34:33.545Z,98453.25
2022-10-14T09:37:20.268Z,98454.09
2022-10-14T09:39:51.164Z,98459.47
2022-10-14T09:42:21.373Z,98454.09
2022-10-14T09:47:41.482Z,98447.00
2022-10-14T09:50:11.119Z,98452.22
2022-10-14T09:52:40.066Z,98446.84
2022-10-14T09:55:18.130Z,98455.94
2022-10-14T09:57:46.746Z,98463.00
2022-10-14T10:00:27.243Z,98445.69
2022-10-14T10:02:56.411Z,98449.34
2022-10-14T10:05:26.632Z,98441.25
2022-10-14T10:08:03.583Z,98445.81
2022-10-14T10:10:35.178Z,98443.31
2022-10-14T10:13:03.809Z,98447.88
2022-10-14T10:15:32.504Z,98442.28
2022-10-14T10:18:00.979Z,98433.38
2022-10-14T10:20:33.281Z,98430.88
2022-10-14T10:23:25.074Z,98446.00
2022-10-14T10:25:55.045Z,98435.25
2022-10-14T10:28:31.953Z,98434.06
2022-10-14T10:31:08.236Z,98432.00
2022-10-14T10:33:40.880Z,98431.84
2022-10-14T10:36:20.982Z,98428.78
2022-10-14T10:39:00.050Z,98432.66
2022-10-14T10:41:51.128Z,98428.63
2022-10-14T10:44:59.016Z,98422.41
2022-10-14T10:47:33.952Z,98425.94
2022-10-14T10:50:27.832Z,98423.03
2022-10-14T10:53:07.252Z,98416.47
2022-10-14T10:55:39.874Z,98413.09
2022-10-14T10:58:20.828Z,98419.34
2022-10-14T11:00:53.028Z,98414.78
2022-10-14T11:03:43.774Z,98410.41
2022-10-14T11:06:35.767Z,98409.59
2022-10-14T11:09:20.136Z,98414.13
2022-10-14T11:12:07.887Z,98407.44
2022-10-14T11:14:56.592Z,98407.63
2022-10-14T11:17:29.952Z,98398.53
2022-10-14T11:20:04.311Z,98403.91
2022-10-14T11:22:51.039Z,98404.09
2022-10-14T11:25:25.340Z,98403.06
2022-10-14T11:28:00.808Z,98404.75
2022-10-14T11:30:39.052Z,98393.34
2022-10-14T11:33:22.872Z,98401.41
2022-10-14T11:35:57.237Z,98401.56
2022-10-14T11:38:40.147Z,98398.06
2022-10-14T11:41:13.903Z,98396.19
2022-10-14T11:43:48.166Z,98395.38
2022-10-14T11:46:20.231Z,98389.97
2022-10-14T11:48:52.315Z,98392.84
2022-10-14T11:51:24.644Z,98393.69
2022-10-14T11:54:04.441Z,98388.31
2022-10-14T11:56:46.826Z,98392.00
2022-10-14T11:59:23.990Z,98387.66
2022-10-14T12:02:04.355Z,98388.94
2022-10-14T12:04:34.984Z,98389.69
2022-10-14T12:07:06.830Z,98385.78
2022-10-14T12:09:39.465Z,98383.31
2022-10-14T12:12:10.973Z,98378.91
2022-10-14T12:14:41.518Z,98378.91
2022-10-14T12:17:18.787Z,98383.59
2022-10-14T12:19:47.523Z,98384.47
2022-10-14T12:22:19.934Z,98373.88
2022-10-14T12:24:51.346Z,98377.91
2022-10-14T12:27:20.009Z,98366.47
2022-10-14T12:29:49.831Z,98369.16
2022-10-14T12:32:25.822Z,98376.22
2022-10-14T12:34:55.000Z,98375.22
2022-10-14T12:40:32.405Z,98368.31
2022-10-14T12:43:24.683Z,98373.38
2022-10-14T12:46:03.239Z,98366.13
2022-10-14T12:48:34.869Z,98363.44
2022-10-14T12:51:13.289Z,98358.06
2022-10-14T12:53:50.210Z,98358.91
2022-10-14T12:56:31.650Z,98362.25
2022-10-14T12:59:02.519Z,98363.06
2022-10-14T13:01:35.263Z,98368.09
2022-10-14T13:04:10.124Z,98359.19
2022-10-14T13:06:40.571Z,98356.50
2022-10-14T13:09:33.283Z,98365.41
2022-10-14T13:12:46.704Z,98351.13
2022-10-14T13:15:54.002Z,98353.81
2022-10-14T13:18:51.477Z,98357.31
2022-10-14T13:21:52.774Z,98353.81
2022-10-14T13:24:28.238Z,98349.47
2022-10-14T13:27:08.859Z,98351.47
2022-10-14T13:29:55.834Z,98358.38
2022-10-14T13:32:31.693Z,98356.88
2022-10-14T13:35:07.591Z,98348.78
2022-10-14T13:37:43.308Z,98356.03
2022-10-14T13:40:22.317Z,98347.09
2022-10-14T13:42:53.282Z,98351.47
2022-10-14T13:45:22.459Z,98343.59
2022-10-14T13:47:51.091Z,98348.13
2022-10-14T13:50:23.709Z,98355.38
2022-10-14T13:52:57.832Z,98344.59
2022-10-14T13:55:27.303Z,98350.00
2022-10-14T13:58:18.677Z,98341.91
2022-10-14T14:00:52.838Z,98346.47
2022-10-14T14:03:24.834Z,98340.41
2022-10-14T14:05:53.804Z,98338.19
2022-10-14T14:08:43.153Z,98345.28
2022-10-14T14:11:19.053Z,98341.56
2022-10-14T14:13:59.837Z,98338.03
2022-10-14T14:16:32.260Z,98340.06
2022-10-14T14:19:08.469Z,98344.41
2022-10-14T14:21:37.885Z,98343.78
2022-10-14T14:24:16.881Z,98330.13
2022-10-14T14:26:45.606Z,98335.72
2022-10-14T14:29:19.023Z,98334.88
2022-10-14T14:32:05.477Z,98340.06
2022-10-14T14:34:36.255Z,98332.81
2022-10-14T14:37:17.541Z,98339.91
2022-10-14T14:40:02.725Z,98328.94
2022-10-14T14:42:36.102Z,98337.84
2022-10-14T14:45:07.873Z,98332.28
2022-10-14T14:47:36.452Z,98334.81
2022-10-14T14:50:28.961Z,98334.31
2022-10-14T14:52:54.289Z,98334.31
2022-10-14T14:55:43.438Z,98328.56
2022-10-14T14:58:25.689Z,98332.28
2022-10-14T15:00:55.369Z,98328.75
2022-10-14T15:03:24.711Z,98333.94
2022-10-14T15:05:56.049Z,98322.34
2022-10-14T15:08:26.542Z,98330.41
2022-10-14T15:10:57.161Z,98327.72
2022-10-14T15:13:44.409Z,98331.25
2022-10-14T15:16:12.916Z,98325.25
2022-10-14T15:18:43.673Z,98331.25
2022-10-14T15:21:19.199Z,98333.13
2022-10-14T15:24:03.132Z,98327.94
2022-10-14T15:26:34.934Z,98334.59
2022-10-14T15:32:07.846Z,98330.78
2022-10-14T15:34:36.351Z,98326.25
2022-10-14T15:37:05.053Z,98331.47
2022-10-14T15:39:33.579Z,98337.84
2022-10-14T15:42:09.999Z,98329.13
2022-10-14T15:44:38.460Z,98326.25
2022-10-14T15:47:21.743Z,98327.94
2022-10-14T15:49:50.842Z,98329.59
2022-10-14T15:52:21.669Z,98325.25
2022-10-14T15:54:55.982Z,98327.06
2022-10-14T15:57:26.683Z,98326.91
2022-10-14T15:59:55.354Z,98328.75
2022-10-14T16:02:28.548Z,98334.16
2022-10-14T16:07:46.549Z,98326.06
2022-10-14T16:10:16.926Z,98323.38
2022-10-14T16:12:47.058Z,98328.75
2022-10-14T16:15:31.712Z,98334.16
2022-10-14T16:18:00.614Z,98330.97
2022-10-14T16:20:30.780Z,98328.09
2022-10-14T16:23:00.681Z,98326.06
2022-10-14T16:25:32.920Z,98336.84
2022-10-14T16:28:07.590Z,98329.59
2022-10-14T16:30:39.595Z,98329.75
2022-10-14T16:33:08.487Z,98330.97
2022-10-14T16:35:37.200Z,98334.31
2022-10-14T16:38:05.729Z,98340.53
2022-10-14T16:40:36.760Z,98340.19
2022-10-14T16:43:07.188Z,98339.16
2022-10-14T16:45:35.982Z,98333.31
2022-10-14T16:48:04.677Z,98336.00
2022-10-14T16:50:33.510Z,98336.16
2022-10-14T16:53:19.279Z,98341.56
2022-10-14T16:55:47.938Z,98339.91
2022-10-14T16:58:17.861Z,98342.38
2022-10-14T17:00:46.806Z,98343.22
2022-10-14T17:03:15.443Z,98339.91
2022-10-14T17:05:44.115Z,98339.03
2022-10-14T17:08:14.834Z,98341.72
2022-10-14T17:10:43.618Z,98343.59
2022-10-14T17:13:12.233Z,98339.03
2022-10-14T17:15:42.219Z,98342.59
2022-10-14T17:18:12.535Z,98341.56
2022-10-14T17:20:41.271Z,98341.56
2022-10-14T17:23:10.539Z,98347.75
2022-10-14T17:25:39.354Z,98352.31
2022-10-14T17:28:07.973Z,98351.47
2022-10-14T17:30:36.568Z,98349.63
2022-10-14T17:33:08.175Z,98337.66
2022-10-14T17:35:36.832Z,98346.75
2022-10-14T17:38:07.471Z,98338.69
2022-10-14T17:40:36.246Z,98340.53
2022-10-14T17:43:04.777Z,98337.84
2022-10-14T17:45:33.333Z,98344.91
2022-10-14T17:48:02.021Z,98347.75
2022-10-14T17:50:32.566Z,98340.91
2022-10-14T17:53:01.125Z,98333.47
2022-10-14T17:55:29.745Z,98344.06
2022-10-14T17:57:58.287Z,98341.56
2022-10-14T18:00:26.958Z,98340.53
2022-10-14T18:02:55.642Z,98344.25
2022-10-14T18:05:24.518Z,98342.38
2022-10-14T18:07:54.553Z,98343.22
2022-10-14T18:10:24.082Z,98341.56
2022-10-14T18:12:52.826Z,98336.16
2022-10-14T18:15:21.345Z,98334.50
2022-10-14T18:17:50.263Z,98342.59
2022-10-14T18:20:18.975Z,98333.47
2022-10-14T18:25:22.645Z,98341.38
2022-10-14T18:27:52.422Z,98336.00
2022-10-14T18:30:23.603Z,98335.34
2022-10-14T18:32:56.011Z,98328.28
2022-10-14T18:35:25.707Z,98337.19
2022-10-14T18:37:54.341Z,98341.56
2022-10-14T18:40:24.311Z,98342.38
2022-10-14T18:42:57.395Z,98352.31
2022-10-14T18:45:25.958Z,98346.94
2022-10-14T18:47:54.611Z,98350.66
2022-10-14T18:50:23.167Z,98341.38
2022-10-14T18:52:51.711Z,98337.84
2022-10-14T18:55:20.392Z,98342.38
2022-10-14T18:57:50.375Z,98342.59
2022-10-14T19:00:19.707Z,98350.66
2022-10-14T19:02:48.327Z,98348.97
2022-10-14T19:05:17.957Z,98345.44
2022-10-14T19:07:47.269Z,98343.78
2022-10-14T19:10:16.207Z,98338.56
2022-10-14T19:15:15.474Z,98339.41
2022-10-14T19:17:46.451Z,98344.78
2022-10-14T19:20:15.861Z,98340.25
2022-10-14T19:22:45.374Z,98345.63
2022-10-14T19:25:14.072Z,98334.88
2022-10-14T19:27:42.782Z,98338.56
2022-10-14T19:30:12.668Z,98344.78
2022-10-14T19:32:42.611Z,98337.69
2022-10-14T19:35:11.434Z,98335.72
2022-10-14T19:37:40.377Z,98327.63
2022-10-14T19:40:10.479Z,98338.41
2022-10-14T19:42:39.055Z,98326.94
2022-10-14T19:45:08.781Z,98329.50
2022-10-14T19:47:37.350Z,98330.50
2022-10-14T19:50:11.418Z,98327.81
2022-10-14T19:52:39.920Z,98326.81
2022-10-14T19:55:09.950Z,98326.59
2022-10-14T19:57:38.642Z,98331.16
2022-10-14T20:00:09.249Z,98330.13
2022-10-14T20:05:13.335Z,98329.50
2022-10-14T20:07:42.175Z,98331.16
2022-10-14T20:10:11.308Z,98336.72
2022-10-14T20:12:40.738Z,98334.69
2022-10-14T20:15:11.121Z,98330.13
2022-10-14T20:17:39.775Z,98336.53
2022-10-14T20:20:09.808Z,98329.50
2022-10-14T20:22:43.749Z,98333.19
2022-10-14T20:25:12.439Z,98338.56
2022-10-14T20:27:41.023Z,98331.31
2022-10-14T20:30:11.634Z,98330.50
2022-10-14T20:32:40.108Z,98331.50
2022-10-14T20:35:14.149Z,98332.31
2022-10-14T20:37:45.155Z,98316.19
2022-10-14T20:40:14.150Z,98328.81
2022-10-14T20:42:42.974Z,98325.13
2022-10-14T20:45:11.969Z,98328.63
2022-10-14T20:47:40.557Z,98325.13
2022-10-14T20:50:10.113Z,98317.88
2022-10-14T20:52:38.694Z,98322.44
2022-10-14T20:55:09.438Z,98317.22
2022-10-14T20:57:37.989Z,98323.44
2022-10-14T21:00:07.659Z,98320.72
2022-10-14T21:02:36.406Z,98309.16
2022-10-14T21:05:05.322Z,98315.34
2022-10-14T21:07:33.999Z,98308.28
2022-10-14T21:10:02.749Z,98315.53
2022-10-14T21:12:32.743Z,98308.28
2022-10-14T21:15:01.299Z,98310.13
2022-10-14T21:17:30.062Z,98306.63
2022-10-14T21:19:58.613Z,98304.75
2022-10-14T21:22:27.226Z,98301.25
2022-10-14T21:24:55.913Z,98303.94
2022-10-14T21:27:24.734Z,98298.56
2022-10-14T21:32:24.984Z,98301.25
2022-10-14T21:34:53.780Z,98291.31
2022-10-14T21:37:22.318Z,98297.53
2022-10-14T21:39:51.692Z,98296.69
2022-10-14T21:42:20.387Z,98291.31
2022-10-14T21:44:49.181Z,98287.78
2022-10-14T21:47:19.176Z,98290.47
2022-10-14T21:49:48.042Z,98283.44
2022-10-14T21:52:16.643Z,98288.81
2022-10-14T21:54:45.260Z,98284.44
2022-10-14T21:57:13.764Z,98286.13
2022-10-14T21:59:42.344Z,98283.44
2022-10-14T22:02:10.930Z,98284.44
2022-10-14T22:04:41.136Z,98287.97
2022-10-14T22:07:10.690Z,98279.88
2022-10-14T22:09:39.307Z,98278.06
2022-10-14T22:12:08.119Z,98283.44
2022-10-14T22:14:36.652Z,98272.84
2022-10-14T22:17:05.233Z,98279.88
2022-10-14T22:19:33.815Z,98283.44
2022-10-14T22:22:04.381Z,98277.19
2022-10-14T22:24:32.906Z,98276.38
2022-10-14T22:27:01.445Z,98271.00
2022-10-14T22:29:32.935Z,98272.69
2022-10-14T22:32:01.548Z,98274.50
2022-10-14T22:34:30.581Z,98270.00
2022-10-14T22:36:59.678Z,98272.69
2022-10-14T22:39:29.799Z,98268.31
2022-10-14T22:41:58.493Z,98269.13
2022-10-14T22:44:27.101Z,98268.31
2022-10-14T22:46:55.854Z,98261.25
2022-10-14T22:49:24.645Z,98251.50
2022-10-14T22:51:55.951Z,98255.06
2022-10-14T22:54:25.584Z,98264.78
2022-10-14T22:56:55.541Z,98271.00
2022-10-14T22:59:24.102Z,98264.94
2022-10-14T23:01:52.682Z,98260.44
2022-10-14T23:04:21.452Z,98255.06
2022-10-14T23:06:51.494Z,98260.22
2022-10-14T23:09:20.020Z,98256.88
2022-10-14T23:11:48.623Z,98256.88
2022-10-14T23:14:18.509Z,98256.88
2022-10-14T23:16:47.159Z,98254.19
2022-10-14T23:19:15.708Z,98246.97
2022-10-14T23:21:44.640Z,98245.28
2022-10-14T23:24:13.251Z,98239.91
2022-10-14T23:26:42.016Z,98245.28
2022-10-14T23:29:11.783Z,98243.44
2022-10-14T23:31:42.054Z,98244.47
2022-10-14T23:34:13.731Z,98238.06
2022-10-14T23:36:42.508Z,98238.06
2022-10-14T23:39:11.305Z,98238.06
2022-10-14T23:41:40.376Z,98228.31
2022-10-14T23:44:09.009Z,98230.84
2022-10-14T23:46:37.668Z,98238.91
2022-10-14T23:49:24.992Z,98243.09
2022-10-14T23:51:55.334Z,98237.06
2022-10-14T23:54:23.919Z,98237.88
2022-10-14T23:56:52.461Z,98239.75
2022-10-14T23:59:21.149Z,98240.56
